Harper, KS (67058)

7:38 AM CDT en Abril 19, 2015 (GMT -0500)
NonFedAWOS | | Change Station
CLOSE
Current Station
Estación meteorológica personal
Location: Harper, KS
Altura: 1426 ft
Estaciones meteorológicas cercanas

Alt 1426 ft 37.28 °N, 98.04 °W | Updated 43 minutes ago

Muy nublado
Muy nublado
48 ° F
Sensación térmica 48 ° F
N
0
Viento Variable Viento desde Norte
Gusts 0.0 mph

Hoy
Alta -- | Baja -- ° F
--% Posibilidad de precipitaciones
Ayer
Alta -- | Baja -- ° F
Precip. -- pul
6:52 AM 8:10 PM
Luna nueva, 1% visible
Presión 29.77 pul
Visibilidad 10.0 Millas
Nubes Nubes dispersas 800 ft
Nubes dispersas 5000 ft
Nubes dispersas 12000 ft
Muy nublado 15000 ft
Vientos helados 48 ° F
Punto de rocío 46 ° F
Humedad 93%
Precipitaciones pul
Espesor de la nieve No disponible.
UV 0 de una escala de 12
Polen 9.00 de una escala de 12
Calidad del aire No disponible.
Flu Activity Sporadic
SPECI KICT 191231Z 32005KT 10SM SCT008 SCT050 SCT120 BKN150 11/09 A2977 RMK AO2 ACC NW-N T01060094

More Conditions Fewer Conditions

Presión 29.77 pul
Visibilidad 10.0 Millas
Nubes Nubes dispersas 800 ft
Nubes dispersas 5000 ft
Nubes dispersas 12000 ft
Muy nublado 15000 ft
Vientos helados 48 ° F
Punto de rocío 46 ° F
Humedad 93%
Precipitaciones pul
Espesor de la nieve No disponible.
UV 0 de una escala de 12
Polen 9.00 de una escala de 12
Calidad del aire No disponible.
Flu Activity Sporadic
SPECI KICT 191231Z 32005KT 10SM SCT008 SCT050 SCT120 BKN150 11/09 A2977 RMK AO2 ACC NW-N T01060094

More Conditions Fewer Conditions

10-Day Weather Forecast

Almanac

Astronomía

Apr. 19, 2015 Salida Puesta
Hora real
Crepúsculo civil
Crepúsculo náutico
Crepúsculo astronómico
Luna
Horas de luz
Horas de luz
Tomorrow will be .
, % of the Moon is Illuminated

Extremos de hoy

Máximos del estado Bajos del estado

Community

WunderPhotos

Upload Photos

1,814,771 ¡fotos cargadas!

WunderBlogs® & News

Nearby

Calidad del aire

  Calidad del aire Índice AQ Contaminante
Not available.

Grosos de nieve

Estación Profundido Altura

Actividad de terremotos

Ciudad Distance Mag. Tiempo y dato
Magnitud mínima muestra es 2,5.

Temperaturas de aguas costeras

Lugar Temperatura

Stations

Estaciones meteorológicas cercanas

Ubicación de la estación Temp. Vientos helados Punto de rocío Humedad Viento Precip. Alt Actualizado Tipo